Datum max min   Außentemperatur Tagesdurchschnitt Außenfeuchte Tagesdurchschnitt Taupunkt Tagesdurchschnitt Windchill Tagesdurchschnitt Windgeschwindigkeit Tagesdurchschnitt   Mindesttemperatur Höchsttemperatur Höchste Windgeschwindigkeit  Tägliche Niederschlagsmenge 
  °C % °C °C km/h   °C °C km/h mm/m²
 
mittelwert
01.01.1972     1021,9 0,0           -1,1 0,9   0,0
02.01.1972     1018,9 -0,8           -1,6 -0,2   0,0
03.01.1972     1014,3 -0,3           -1,0 0,1   0,6
04.01.1972     1018,3 0,0           -1,6 1,3   0,0
05.01.1972     1019,9 -1,9           -4,2 1,9   0,1
06.01.1972     1019,3 -4,4           -9,5 -2,5   0,0
07.01.1972     1018,1 -2,3           -3,2 -1,4   0,0
08.01.1972     1015,7 -3,0           -4,8 -2,1   1,0
09.01.1972     1015,1 -0,2           -2,8 2,0   0,1
10.01.1972     1018,7 -0,6           -3,0 0,3   0,0
11.01.1972     1019,1 0,6           0,0 1,3   0,0
12.01.1972     1016,3 -3,4           -5,0 0,6   0,0
13.01.1972     1015,3 -5,8           -7,1 -3,2   0,0
14.01.1972     1014,1 -6,5           -8,9 -4,9   0,0
15.01.1972     1015,7 -7,0           -9,0 -4,1   0,0
16.01.1972     1011,4 -10,2           -12,1 -5,5   0,0
17.01.1972     1005,8 -12,0           -13,0 -10,5   0,0
18.01.1972     1009,0 -10,5           -14,9 -5,5   0,0
19.01.1972     1011,7 -7,1           -11,5 -3,4   0,0
20.01.1972     1008,3 -5,2           -7,9 -3,8   0,0
21.01.1972     1011,4 -2,1           -5,4 -0,8   0,7
22.01.1972     1023,0 -2,0           -2,6 -1,3   0,1
23.01.1972     1023,1 -2,4           -3,3 -1,6   0,0
24.01.1972     1014,2 -3,8           -4,3 -2,4   0,0
25.01.1972     1008,6 -3,6           -8,4 -0,5   0,0
26.01.1972     1009,8 -2,2           -4,6 -1,3   0,1
27.01.1972     997,1 -2,0           -4,9 -0,2   1,1
28.01.1972     1009,3 -5,3           -8,4 -1,3   0,5
29.01.1972     1013,0 -11,8           -12,5 -8,4   0,9
30.01.1972     1009,4 -13,1           -14,9 -9,8   0,0
31.01.1972     1015,8 -9,0           -17,0 -7,1   0,1
01.02.1972     1016,3 -8,6           -12,4 -4,3   0,0
02.02.1972     1015,4 -4,4           -9,9 -1,3   0,0
03.02.1972     1011,9 -5,1           -7,0 -2,2   0,0
04.02.1972     1006,6 -5,4           -7,4 -3,4   0,8
05.02.1972     1009,1 -6,4           -7,9 -3,0   0,0
06.02.1972     1011,3 -2,4           -8,0 0,1   0,0
07.02.1972     1011,0 -0,6           -4,1 2,4   0,0
08.02.1972     1011,9 -0,1           -3,1 4,3   0,0
09.02.1972     1007,9 -1,2           -2,7 0,3   0,0
10.02.1972     1007,5 -0,4           -2,6 0,4   4,1
11.02.1972     998,2 0,8           -1,0 1,4   2,8
12.02.1972     995,7 1,2           0,0 2,4   0,0
13.02.1972     1001,0 0,7           -1,0 3,9   0,0
14.02.1972     1012,5 1,4           -1,5 3,6   0,0
15.02.1972     1017,7 0,3           -2,0 4,0   0,0
16.02.1972     1011,5 -0,7           -3,1 1,6   0,0
17.02.1972     1011,1 -0,6           -3,0 1,9   0,0
18.02.1972     1012,6 0,3           -3,2 3,5   0,0
19.02.1972     1009,9 0,7           -1,0 3,5   0,0
20.02.1972     1008,7 2,4           -2,0 4,3   0,0
21.02.1972     1016,6 1,7           0,1 5,6   0,0
22.02.1972     1019,9 0,2           -1,4 1,6   0,0
23.02.1972     1022,1 1,6           0,1 4,0   0,0
24.02.1972     1019,5 1,8           0,9 3,4   0,0
25.02.1972     1014,6 3,3           0,3 5,9   0,1
26.02.1972     1013,9 3,1           2,2 4,6   0,1
27.02.1972     1015,4 2,8           1,1 5,5   0,0
28.02.1972     1016,2 2,0           0,5 3,7   0,0
29.02.1972     1016,3 1,5           1,0 2,2   0,0
01.03.1972     1015,8 1,0           -0,7 5,3   0,0
02.03.1972     1016,1 1,3           -1,0 4,9   0,0
03.03.1972     1010,1 1,9           -0,6 7,0   0,0
04.03.1972     1004,6 3,8           -0,1 8,7   0,0
05.03.1972     996,5 2,1           0,5 5,3   0,1
06.03.1972     1000,2 2,8           1,0 5,8   0,0
07.03.1972     1002,6 3,8           -0,5 7,3   5,1
08.03.1972     1007,9 2,3           1,1 7,3   0,0
09.03.1972     1010,2 3,8           -1,6 10,2   0,0
10.03.1972     1008,5 1,6           0,1 3,0   5,4
11.03.1972     1016,9 -3,0           -5,0 2,9   1,1
12.03.1972     1025,0 -4,0           -10,4 0,1   0,0
13.03.1972     1021,9 -0,2           -5,1 5,1   0,0
14.03.1972     1022,2 3,1           -4,2 13,4   0,0
15.03.1972     1023,3 6,1           -2,1 15,3   0,0
16.03.1972     1024,1 5,4           -0,9 12,6   0,0
17.03.1972     1024,5 10,0           1,0 17,4   0,0
18.03.1972     1021,1 8,6           1,7 16,5   0,0
19.03.1972     1017,4 7,7           -0,6 16,4   0,0
20.03.1972     1019,4 7,8           -0,7 14,8   0,0
21.03.1972     1020,5 6,4           -1,4 14,3   0,0
22.03.1972     1018,1 6,2           -0,4 13,0   0,0
23.03.1972     1020,9 7,2           -0,1 8,3   0,0
24.03.1972     1017,9 2,1           -3,5 12,3   0,0
25.03.1972     1006,1 4,5           -1,2 14,5   0,0
26.03.1972     1005,9 8,6           -1,0 14,0   2,3
27.03.1972     1000,5 3,8           1,4 8,5   20,1
28.03.1972     996,5 0,8           -0,1 4,6   1,3
29.03.1972     1007,1 0,8           -1,1 3,5   6,7
30.03.1972     1012,6 4,1           0,5 7,6   0,5
31.03.1972     1013,1 7,0           0,5 12,0   1,9
01.04.1972     1015,1 2,9           0,4 7,3   6,5
02.04.1972     1017,9 6,1           -2,9 9,1   12,3
03.04.1972     1011,9 8,8           8,0 10,4   6,0
04.04.1972     1007,4 7,2           1,4 11,2   5,0
05.04.1972     1003,5 5,4           3,7 9,4   4,1
06.04.1972     1007,5 5,5           2,0 9,9   1,9
07.04.1972     1007,5 9,6           3,5 12,1   0,9
08.04.1972     1008,7 7,2           6,0 10,8   0,0
09.04.1972     1012,2 5,0           2,9 10,7   0,0
10.04.1972     1003,4 6,8           -0,7 13,6   2,0
11.04.1972     994,6 4,8           3,0 8,0   3,2
12.04.1972     1002,1 3,7           2,6 6,5   0,7
13.04.1972     1014,5 4,8           0,3 9,1   0,0
14.04.1972     1014,6 6,6           -2,1 12,0   0,0
15.04.1972     1008,1 5,2           2,9 11,4   6,5
16.04.1972     1012,9 3,2           2,4 3,8   1,8
17.04.1972     1013,9 3,3           2,0 3,9   7,5
18.04.1972     1013,0 4,5           2,5 7,2   0,7
19.04.1972     1010,6 2,6           0,6 4,9   4,1
20.04.1972     1016,2 5,0           2,4 8,2   0,0
21.04.1972     1012,3 5,9           4,0 7,4   0,0
22.04.1972     1010,9 7,5           5,3 9,3   0,3
23.04.1972     1015,0 5,6           2,3 10,6   0,0
24.04.1972     1010,7 1,3           -1,9 6,9   1,0
25.04.1972     1015,9 -2,2           -5,1 1,3   0,0
26.04.1972     1012,2 2,5           -6,4 5,0   0,5
27.04.1972     1009,0 3,2           1,4 6,4   0,3
28.04.1972     1012,3 2,0           -1,3 6,6   0,1
29.04.1972     1006,9 7,5           0,6 10,6   0,0
30.04.1972     1006,5 12,2           6,5 19,2   0,0
01.05.1972     1007,4 10,7           6,4 18,1   0,0
02.05.1972     1010,5 13,5           6,6 19,5   0,0
03.05.1972     1009,3 10,4           7,2 17,3   3,1
04.05.1972     1008,1 7,2           6,0 8,7   1,0
05.05.1972     1011,1 9,1           6,0 14,2   0,0
06.05.1972     1014,6 11,2           2,3 17,9   0,0
07.05.1972     1015,0 11,5           6,0 17,0   1,2
08.05.1972     1016,2 9,9           8,0 15,6   0,4
09.05.1972     1015,8 11,2           4,9 17,6   4,8
10.05.1972     1013,8 8,2           6,5 13,1   5,4
11.05.1972     1011,7 6,8           5,3 8,9   7,6
12.05.1972     1007,4 7,2           3,4 11,8   1,3
13.05.1972     1005,5 6,6           3,5 11,9   0,0
14.05.1972     1005,9 4,3           2,9 5,9   1,6
15.05.1972     1009,5 5,0           4,2 6,6   10,8
16.05.1972     1007,8 4,9           4,6 5,6   3,8
17.05.1972     1011,8 7,5           2,5 13,3   0,0
18.05.1972     1015,5 10,3           1,1 14,5   0,9
19.05.1972     1012,9 8,7           7,5 10,2   0,1
20.05.1972     1013,5 10,2           8,0 15,4   0,0
21.05.1972     1018,3 9,5           7,0 13,7   0,3
22.05.1972     1019,1 12,6           2,5 18,5   0,0
23.05.1972     1018,6 15,0           5,1 22,0   0,0
24.05.1972     1020,2 14,0           8,7 17,0   0,7
25.05.1972     1020,1 12,6           10,6 16,5   1,4
26.05.1972     1011,5 12,2           8,8 13,7   4,7
27.05.1972     1004,5 8,6           7,0 12,0   8,5
28.05.1972     1011,1 7,8           6,0 11,9   4,2
29.05.1972     1014,5 10,2           7,3 13,1   1,8
30.05.1972     1013,8 10,0           7,7 14,5   0,8
31.05.1972     1014,9 9,2           3,6 13,9   0,0
01.06.1972     1015,4 9,1           3,3 14,0   0,1
02.06.1972     1017,5 8,8           2,8 13,1   2,4
03.06.1972     1018,7 13,0           2,0 18,4   0,0
04.06.1972     1016,3 17,6           5,8 24,0   0,0
05.06.1972     1013,9 19,6           10,8 26,8   0,0
06.06.1972     1012,3 18,3           13,6 26,9   0,0
07.06.1972     1017,5 16,8           10,9 22,3   6,4
08.06.1972     1019,3 10,4           8,3 17,1   0,0
09.06.1972     1015,7 12,9           2,5 18,3   0,0
10.06.1972     1011,1 13,1           7,4 17,2   7,0
11.06.1972     1010,3 13,0           9,3 15,7   8,5
12.06.1972     1007,7 9,2           8,8 13,1   22,5
13.06.1972     1013,3 10,5           7,4 13,1   0,0
14.06.1972     1015,4 11,8           7,0 14,0   0,0
15.06.1972     1012,2 12,9           8,2 17,2   24,2
16.06.1972     1014,9 10,2           9,1 12,8   3,4
17.06.1972     1019,8 11,4           7,7 14,7   0,0
18.06.1972     1015,7 14,2           7,8 19,0   0,0
19.06.1972     1011,8 15,5           10,2 19,7   0,0
20.06.1972     1018,5 11,3           9,3 16,3   0,0
21.06.1972     1019,0 14,4           6,4 19,9   0,0
22.06.1972     1015,1 17,0           8,6 21,5   1,0
23.06.1972     1013,3 11,6           9,2 16,8   0,7
24.06.1972     1017,0 10,7           6,8 16,0   0,0
25.06.1972     1020,1 13,3           3,7 19,5   0,0
26.06.1972     1018,1 15,9           5,3 22,0   0,0
27.06.1972     1014,3 18,0           6,7 24,0   0,0
28.06.1972     1015,1 17,6           11,6 24,4   2,2
29.06.1972     1014,9 14,2           13,4 16,7   0,1
30.06.1972     1009,7 12,0           10,3 14,6   19,3
01.07.1972     1015,7 10,3           8,0 13,4   0,0
02.07.1972     1017,9 12,8           6,0 17,8   0,0
03.07.1972     1016,7 11,6           10,0 13,6   1,0
04.07.1972     1016,9 13,6           9,7 18,5   0,0
05.07.1972     1013,0 17,1           7,2 23,4   0,0
06.07.1972     1014,1 17,6           11,1 23,0   1,7
07.07.1972     1018,1 16,8           13,9 22,1   0,0
08.07.1972     1020,2 17,2           12,0 21,6   0,0
09.07.1972     1016,9 22,0           11,2 28,7   7,1
10.07.1972     1019,5 12,2           9,1 22,4   15,9
11.07.1972     1021,8 10,6           6,4 13,3   0,1
12.07.1972     1022,9 13,0           9,4 16,0   0,0
13.07.1972     1026,1 13,1           8,9 17,9   0,0
14.07.1972     1025,8 14,6           5,4 18,8   0,0
15.07.1972     1023,8 16,3           11,1 18,0   0,0
16.07.1972     1021,4 19,5           16,7 22,4   0,0
17.07.1972     1018,6 20,6           18,3 26,2   0,6
18.07.1972     1017,4 21,2           14,5 27,1   0,2
19.07.1972     1016,5 22,4           14,5 28,1   0,0
20.07.1972     1016,1 21,4           14,2 28,6   1,2
21.07.1972     1017,0 21,9           14,2 27,9   0,0
22.07.1972     1017,8 20,2           13,9 25,2   0,0
23.07.1972     1017,5 17,0           14,3 26,5   30,2
24.07.1972     1015,7 19,9           12,4 26,8   2,3
25.07.1972     1016,9 16,8           15,3 20,1   6,3
26.07.1972     1019,3 14,8           12,1 19,1   0,0
27.07.1972     1017,3 12,6           10,9 17,0   0,0
28.07.1972     1015,5 13,1           11,2 15,5   42,4
29.07.1972     1015,1 12,4           11,6 13,4   9,9
30.07.1972     1014,2 12,0           11,1 15,1   16,5
31.07.1972     1011,8 13,2           9,9 19,1   0,3
01.08.1972     1009,0 14,8           8,4 20,6   0,0
02.08.1972     1009,7 13,0           9,0 19,5   1,5
03.08.1972     1011,3 12,7           8,6 16,6   0,9
04.08.1972     1019,9 12,6           9,4 16,7   0,0
05.08.1972     1019,4 14,8           8,9 19,8   0,0
06.08.1972     1019,7 16,0           10,1 21,8   0,0
07.08.1972     1015,5 19,1           9,5 25,5   0,0
08.08.1972     1015,0 19,5           13,6 25,3   0,9
09.08.1972     1019,7 19,2           16,5 23,3   0,0
10.08.1972     1021,8 19,5           13,5 25,9   0,5
11.08.1972     1020,2 16,0           14,0 26,3   11,4
12.08.1972     1022,1 16,4           9,0 22,8   0,5
13.08.1972     1018,6 21,7           12,1 29,5   0,0
14.08.1972     1015,7 22,8           17,6 29,5   0,0
15.08.1972     1014,9 18,6           15,6 25,5   41,4
16.08.1972     1019,0 12,1           10,4 15,6   0,1
17.08.1972     1018,5 11,9           10,4 15,0   1,9
18.08.1972     1012,5 9,4           7,4 13,9   6,2
19.08.1972     1018,3 8,9           5,4 13,1   0,0
20.08.1972     1020,7 11,5           5,2 15,6   0,0
21.08.1972     1018,9 11,0           9,4 15,1   1,3
22.08.1972     1019,1 9,5           8,1 14,2   0,5
23.08.1972     1020,3 11,4           5,1 15,7   0,1
24.08.1972     1022,5 12,1           4,0 16,6   0,0
25.08.1972     1021,7 12,6           8,5 16,1   0,0
26.08.1972     1019,7 11,7           10,8 14,8   0,0
27.08.1972     1018,7 12,1           9,1 16,4   0,0
28.08.1972     1019,1 12,0           8,8 17,5   0,0
29.08.1972     1019,4 11,4           7,1 17,9   0,0
30.08.1972     1020,2 11,3           6,0 17,1   0,0
31.08.1972     1021,8 9,7           5,4 14,3   0,0
01.09.1972     1023,1 9,8           6,9 12,9   7,2
02.09.1972     1023,4 9,8           9,0 11,8   1,5
03.09.1972     1021,1 12,3           6,3 18,9   0,0
04.09.1972     1018,5 13,1           9,0 18,2   0,0
05.09.1972     1016,9 13,6           7,6 19,0   0,0
06.09.1972     1016,9 14,7           8,6 21,8   0,0
07.09.1972     1015,0 16,0           9,7 22,6   0,0
08.09.1972     1015,9 16,3           10,6 20,3   1,1
09.09.1972     1012,5 15,2           10,5 22,5   0,0
10.09.1972     1008,1 15,0           11,3 21,2   7,8
11.09.1972     1019,8 7,1           5,2 13,1   0,6
12.09.1972     1021,4 7,6           5,1 13,1   0,0
13.09.1972     1016,9 7,2           0,4 14,1   0,0
14.09.1972     1014,1 7,6           1,2 13,7   0,0
15.09.1972     1014,2 6,5           4,7 10,7   0,0
16.09.1972     1013,5 7,3           4,0 11,2   10,1
17.09.1972     1015,8 6,5           5,6 9,0   4,7
18.09.1972     1018,6 5,1           3,6 8,5   0,6
19.09.1972     1019,3 9,1           0,3 13,9   0,0
20.09.1972     1020,7 8,8           6,0 13,2   0,0
21.09.1972     1025,0 8,5           1,3 17,0   0,0
22.09.1972     1024,5 9,8           0,8 15,6   0,4
23.09.1972     1018,6 7,2           5,1 11,6   2,1
24.09.1972     1016,5 5,4           4,0 9,8   3,8
25.09.1972     1016,9 4,5           2,9 6,3   1,3
26.09.1972     1019,5 5,3           3,6 9,8   0,3
27.09.1972     1018,5 5,6           -1,3 6,9   2,6
28.09.1972     1019,9 7,2           6,1 9,5   0,0
29.09.1972     1022,7 6,9           4,3 9,0   0,0
30.09.1972     1023,0 5,8           3,4 9,7   0,0
01.10.1972     1021,1 4,5           2,2 9,8   0,0
02.10.1972     1024,2 3,8           -1,6 10,6   0,0
03.10.1972     1027,3 1,6           -1,5 6,7   0,0
04.10.1972     1027,8 2,6           -3,8 10,4   0,0
05.10.1972     1025,3 4,8           -4,2 14,0   0,0
06.10.1972     1023,4 9,2           1,0 18,0   0,0
07.10.1972     1023,7 9,3           3,2 18,5   0,0
08.10.1972     1022,7 9,4           2,2 18,6   0,0
09.10.1972     1018,1 5,4           0,4 12,4   0,0
10.10.1972     1012,2 7,4           1,1 13,6   0,0
11.10.1972     1006,9 6,1           -0,4 14,7   0,0
12.10.1972     1009,3 3,4           -3,0 6,3   0,1
13.10.1972     1012,7 4,7           2,5 9,4   0,0
14.10.1972     1019,1 3,5           1,1 8,6   0,0
15.10.1972     1025,3 4,2           0,2 5,5   0,0
16.10.1972     1030,3 4,0           2,3 7,4   0,0
17.10.1972     1027,5 4,6           -2,6 13,7   0,0
18.10.1972     1024,1 2,7           -0,3 7,0   0,1
19.10.1972     1021,0 0,0           -4,9 7,0   0,0
20.10.1972     1009,8 0,8           -3,9 3,1   3,2
21.10.1972     1010,9 0,2           -0,8 3,3   0,7
22.10.1972     1012,3 0,7           -3,4 2,5   5,8
23.10.1972     1014,9 5,5           0,5 7,1   3,4
24.10.1972     1016,7 5,9           5,1 7,3   0,6
25.10.1972     1020,5 3,2           0,5 8,1   0,0
26.10.1972     1018,9 4,3           -2,3 10,3   0,0
27.10.1972     1012,6 5,6           2,4 11,6   0,0
28.10.1972     1011,4 6,7           2,9 7,9   9,8
29.10.1972     1022,6 6,6           5,4 8,5   0,1
30.10.1972     1022,9 7,0           3,2 11,1   0,0
31.10.1972     1018,5 5,5           3,8 8,1   0,0
01.11.1972     1022,1 4,0           1,0 7,3   0,2
02.11.1972     1025,9 3,8           1,0 10,5   0,1
03.11.1972     1024,9 3,4           -0,8 12,0   0,1
04.11.1972     1023,4 3,2           -1,1 8,3   0,0
05.11.1972     1025,1 3,8           1,8 4,8   0,1
06.11.1972     1026,7 6,0           4,6 6,9   0,4
07.11.1972     1022,6 7,6           6,0 8,6   0,1
08.11.1972     1021,7 7,5           6,8 9,6   0,0
09.11.1972     1021,7 7,3           6,8 8,6   0,0
10.11.1972     1012,3 6,4           3,8 8,0   4,7
11.11.1972     1005,7 3,0           0,8 7,9   6,4
12.11.1972     1006,5 1,1           0,2 2,6   7,7
13.11.1972     995,9 3,8           0,5 8,5   3,6
14.11.1972     1005,9 1,0           0,4 3,3   1,1
15.11.1972     1014,3 -0,1           -1,0 0,8   1,3
16.11.1972     1011,1 -1,4           -2,1 -0,5   1,3
17.11.1972     1004,5 -0,4           -2,0 0,3   20,3
18.11.1972     1009,7 -1,2           -2,3 1,0   0,7
19.11.1972     1013,5 -1,6           -2,9 -0,3   0,9
20.11.1972     998,1 2,9           -2,1 4,0   7,0
21.11.1972     998,6 2,7           1,4 4,3   3,3
22.11.1972     1006,9 3,2           1,9 4,5   0,1
23.11.1972     1012,9 2,0           0,7 3,5   1,1
24.11.1972     1016,1 -0,7           -1,6 1,1   3,0
25.11.1972     1025,5 -3,5           -6,4 -0,8   0,0
26.11.1972     1029,0 -4,4           -9,1 -2,4   0,0
27.11.1972     1029,1 -2,4           -4,3 -2,0   0,0
28.11.1972     1020,2 -2,4           -3,4 0,0   0,0
29.11.1972     1015,1 1,2           -3,6 2,0   0,1
30.11.1972     1007,8 1,3           -0,2 3,3   0,3
01.12.1972     1010,6 3,0           -0,8 4,5   0,0
02.12.1972     1010,5 1,6           0,1 6,0   0,0
03.12.1972     1010,7 1,2           -0,7 3,8   0,0
04.12.1972     1016,7 3,0           0,1 4,6   0,0
05.12.1972     1019,5 3,6           2,3 4,9   1,1
06.12.1972     1018,2 3,5           1,8 6,7   0,0
07.12.1972     1011,8 5,1           1,3 7,0   2,1
08.12.1972     1012,9 4,3           3,6 5,5   2,8
09.12.1972     1016,3 2,3           1,9 3,6   0,8
10.12.1972     1023,4 -0,3           -2,0 3,5   0,0
11.12.1972     1025,5 -0,3           -2,6 0,2   0,0
12.12.1972     1024,6 -0,7           -1,3 2,2   0,0
13.12.1972     1028,1 -1,3           -2,8 2,3   0,0
14.12.1972     1030,9 1,0           -3,0 3,4   0,0
15.12.1972     1027,8 -2,0           -3,1 0,8   0,0
16.12.1972     1028,6 -3,6           -4,9 -1,0   0,1
17.12.1972     1028,9 -4,0           -7,3 1,5   0,1
18.12.1972     1030,3 -1,1           -7,0 1,3   0,1
19.12.1972     1035,0 -0,4           -1,2 0,2   0,1
20.12.1972     1035,0 -2,9           -4,6 -0,5   0,0
21.12.1972     1031,3 -5,4           -6,8 -2,4   0,2
22.12.1972     1030,2 -6,5           -8,9 -3,5   0,0
23.12.1972     1024,9 -6,4           -8,6 -1,2   0,1
24.12.1972     1024,3 -5,6           -11,0 -0,6   0,0
25.12.1972     1022,6 -8,3           -10,0 -5,7   0,2
26.12.1972     1022,6 -7,5           -9,3 -4,8   0,0
27.12.1972     1020,2 -2,4           -8,1 -1,3   0,0
28.12.1972     1018,6 -2,2           -2,7 -1,1   0,0
29.12.1972     1023,9 -4,0           -5,4 -2,0   0,0
30.12.1972     1028,3 -5,1           -7,1 -1,4   0,0
31.12.1972     1026,6 -5,3           -9,2 -2,0   0,0